Sacramento Executive Airport Sacramento US
ICAO: KSAC
IATA: SAC
Category: Medium
Scheduled Services: No

Elevation: 24 ft
TransAlt. 18000 ft.

Airport Communications:
NORCAL APP/DEP:125.25
ATIS:125.5
CTAF:119.5
GND:125
RANCHO RDO:122.05
EXEC TWR:119.5
UNICOM:122.95

KSAC Zoom In..

If you have problems with the map follow the link
https://www.worldairports.se/pages/airport.php?
ICAO=KSAC

Runways:

(A) RW 02 length 5503 ft width 150 ft
ILS 110.30 / hdg 19

(B) RW 12 length 3837 ft width 100 ft
---- / hdg 119

(C) RW 16 length 3505 ft width 150 ft
---- / hdg 166

(D) RW 20 length 5503 ft width 150 ft
---- / hdg 199

(E) RW 30 length 3837 ft width 100 ft
---- / hdg 299

(F) RW 34 length 3505 ft width 150 ft
---- / hdg 346

Location; KSAC
Day. 14 / Time. 04.53 Zulu
* Altimeter: 30.07
* Temperature: 13° c. 55.4°f.
* Wind from: 170° Speed 06 kn.
Dewpoint: 12° c.
Visibility: 7 Statute Miles.
Clouds: Few 1700 ft.
Clouds: Broken 2900 ft.
Clouds: Overcast 7000 ft.
Conditions: Light Rain.

KSAC 140453Z 17006KT 7SM -RA FEW017 BKN029 OVC070 13/12 A3007 RMK AO2 SLP182 P0002 T01330122


Wind From 170°
Speed 06 kn.

 
 
jpsmedia worldairports.se 2019   terms of use